Tamworth, United Kingdom
Current Conditions -  °F | °C
As of 2:50 AM on Wednesday 26 Nov 2014 (Local Time) from EGBB Reporting Station
Light Rain Light Rain  
Wind Chill: 39°   Ceiling: 600
Heat Index: 43°   Visibility: 1mi
Dew Point: 43°   Wind: 6mph
Humidity: 100%   Direction: 20°NNE
Pressure: 29.94"   Gusts: NA
Location:  52.63°N, 1.69°W
Report Text: EGBB 260250Z AUTO 02005KT 1600 -RA FEW002/// BKN006/// OVC018/// 06/06 Q1014 RERA
Loading
Personal Weather Stations






























Interactive Weather Map New forecast layout! Learn more

10-Day Weather Forecast

Advertisements
Track Severe Weather on mobile